Etusivu
METAR-TAF:

METAR-TAF

Lentoasemat :

Little Rock National Airport (Adams Field)

Little Rock, Arkansas, Yhdysvallat

Leveyspiiri: 34-43-36N, Pituuspiiri: 092-14-10W, korkeus merenpinnasta: 79 m

Tämänhetkinen sää

Tämä raportti tehtiin 39 minuuttia sitten, kello 07.53 UTC
tyyntä
Lämpötila 4°C
Kosteus 81%
Ilmanpaine 1031 hPa
Näkyvyys: 16.1 km
selkeää

METAR: KLIT 080753Z 00000KT 10SM CLR 04/01 A3045 RMK AO2 SLP315 T00440006 $

Aika: 02:32 (08:32 UTC)

Sääennuste

Tämä raportti tehtiin 3 tuntia ja 8 minuuttia sitten, kello 05.24 UTC
Ennuste voimassa 08. päivästä klo 06 UTC - 09. päivään klo 06 UTC
Tuuli 4 kn eri suunnista
Näkyvyys: 10 km
Hajanaisia pilviä 25000 ft:n korkeudessa
From 08. päivästä klo 1500 UTC
Tuuli 10 kn etelästä
Näkyvyys: 10 km
Hajanaisia pilviä 25000 ft:n korkeudessa

TAF: KLIT 080524Z 0806/0906 VRB04KT P6SM SCT250 FM081500 18010KT P6SM SCT250

Säähavainnot ja -ennusteet yli 4000 lentoasemalta (METAR- ja TAF-raportit).

Käytössä olevat sääasemat on merkitty karttaan keltaisilla ja punaisilla pisteillä.

Aseta hiiri pisteen päälle nähdäksesi sääaseman nimen.

Klikkaa sitten nähdäksesi säähavainnot ja -ennusteet.

Kartan vaihtaminen: klikkaa mustalla rastilla varustettuja vihreitä pisteitä, niin voit zoomata sisään; viivalla varustettua vihreää pistettä, niin voit zoomata ulos tai vihreitä nuolia, niin pääset viereisille kartoille.


METAR-TAF: